PDT,Max TemperatureF,Mean TemperatureF,Min TemperatureF,Max Dew PointF,MeanDew PointF,Min DewpointF,Max Humidity, Mean Humidity, Min Humidity, Max Sea Level PressureIn, Mean Sea Level PressureIn, Min Sea Level PressureIn, Max VisibilityMiles, Mean VisibilityMiles, Min VisibilityMiles, Max Wind SpeedMPH, Mean Wind SpeedMPH, Max Gust SpeedMPH,PrecipitationIn, CloudCover, Events, WindDirDegrees
2013-4-1,57,49,41,55,49,41,100,97,88,30.15,30.07,29.98,10,10,5,17,4,22,0.00,2,,195
2013-4-2,53,48,44,52,49,45,100,95,82,30.21,30.20,30.16,10,10,10,10,4,16,0.00,8,,196
2013-4-3,60,52,44,54,50,45,100,89,63,30.19,30.10,29.98,10,10,10,10,4,,0.00,2,,309
2013-4-4,57,52,46,57,52,46,100,100,94,29.98,29.75,29.61,10,9,3,21,6,38,0.22,6,,49
2013-4-5,57,52,48,55,52,48,100,96,82,29.84,29.78,29.66,10,8,3,22,12,33,0.45,7,,162
2013-4-6,53,48,44,52,48,45,100,98,77,29.91,29.83,29.68,10,8,2,18,10,28,0.62,7,,117
2013-4-7,46,44,42,46,44,43,100,100,93,29.88,29.71,29.55,10,7,2,14,6,17,0.86,7,,341
2013-4-8,53,48,42,52,46,43,100,97,77,30.27,30.11,29.89,10,10,5,9,3,,0.02,7,,148
2013-4-9,55,50,44,48,45,39,100,83,58,30.35,30.29,30.16,10,10,10,13,5,16,0.00,6,,147
2013-4-10,53,50,46,52,47,43,100,88,67,30.24,30.08,29.90,10,9,2,20,12,30,0.15,7,,210
2013-4-11,53,46,39,46,43,36,100,85,54,30.30,30.26,30.21,10,10,10,13,7,20,0.00,4,,242
2013-4-12,46,42,37,45,42,37,100,98,76,30.20,29.95,29.69,10,9,3,16,4,24,0.17,6,,151
2013-4-13,44,40,37,45,40,37,100,97,87,29.92,29.85,29.75,10,8,2,14,8,25,0.27,6,,202
2013-4-14,51,44,37,45,40,37,100,84,58,30.03,29.97,29.94,10,10,3,9,5,,0.02,3,,324
2013-4-15,53,46,39,46,43,39,100,91,62,30.19,30.06,29.96,10,10,3,15,3,21,0.77,5,,348
2013-4-16,55,44,33,43,38,34,100,79,44,30.41,30.32,30.20,10,9,0,13,3,17,0.00,1,,328
2013-4-17,55,46,37,45,41,37,100,81,54,30.46,30.44,30.41,10,10,10,13,3,18,0.00,4,,209
2013-4-18,50,47,44,48,46,45,100,99,87,30.46,30.40,30.20,10,8,2,13,5,18,0.35,8,,154
2013-4-19,53,50,46,54,49,46,100,100,100,30.20,30.13,30.07,10,7,1,12,6,,0.51,8,,140
2013-4-20,55,50,46,52,48,45,100,92,77,30.27,30.24,30.19,10,10,5,16,8,28,0.04,8,,217
2013-4-21,53,48,42,48,44,39,100,88,66,30.40,30.28,30.24,10,10,9,15,5,20,0.00,5,,289
2013-4-22,55,45,35,43,37,28,100,73,38,30.56,30.49,30.41,10,10,10,16,7,21,0.97,0,,350
2013-4-23,57,47,37,45,40,34,100,78,51,30.45,30.35,30.28,10,10,10,13,4,,0.00,1,,314
2013-4-24,64,52,39,46,42,34,100,73,32,30.35,30.25,30.08,10,10,10,9,4,,0.00,0,,356
2013-4-25,66,52,39,54,47,39,100,79,49,30.17,30.10,30.06,10,10,10,12,2,,0.00,0,,276
2013-4-26,64,54,44,55,47,36,100,82,37,30.27,30.23,30.18,10,10,8,10,4,,0.00,2,,202
2013-4-27,55,52,46,54,50,45,100,97,67,30.22,30.19,30.15,10,9,1,10,3,22,0.14,6,,164
2013-4-28,53,48,42,52,46,43,100,92,76,30.22,30.15,29.94,10,9,1,13,3,17,0.00,6,,189
2013-4-29,53,48,44,48,39,32,100,74,47,30.15,30.07,29.93,10,10,7,14,8,26,0.03,5,,257
2013-4-30,53,46,39,43,38,34,100,78,47,30.46,30.31,30.15,10,10,4,13,5,,0.07,4,,294